createdAt,value
2018-11-25T00:02:45.162Z,74.2
2018-11-25T00:07:45.892Z,74.1
2018-11-25T00:12:28.274Z,74.2
2018-11-25T00:17:27.659Z,74.2
2018-11-25T00:22:28.131Z,74.2
2018-11-25T00:27:28.093Z,74.5
2018-11-25T00:32:28.093Z,74.5
2018-11-25T00:37:28.175Z,74.2
2018-11-25T00:42:28.328Z,74.5
2018-11-25T00:47:28.377Z,74.6
2018-11-25T00:52:27.669Z,74.6
2018-11-25T00:57:28.071Z,74.6
2018-11-25T01:02:27.616Z,74.7
2018-11-25T01:07:29.049Z,74.9
2018-11-25T01:12:27.840Z,75.1
2018-11-25T01:17:28.292Z,75.0
2018-11-25T01:22:28.301Z,75.0
2018-11-25T01:27:27.498Z,75.1
2018-11-25T01:32:28.992Z,75.2
2018-11-25T01:37:28.033Z,75.0
2018-11-25T01:42:28.127Z,74.9
2018-11-25T01:47:28.741Z,75.0
2018-11-25T01:52:27.434Z,74.8
2018-11-25T01:57:27.650Z,75.0
2018-11-25T02:02:28.272Z,75.0
2018-11-25T02:07:28.395Z,74.9
2018-11-25T02:12:28.582Z,74.8
2018-11-25T02:17:29.145Z,74.8
2018-11-25T02:22:29.433Z,74.5
2018-11-25T02:27:28.092Z,74.7
2018-11-25T02:32:28.169Z,74.7
2018-11-25T02:37:27.835Z,74.6
2018-11-25T02:42:27.929Z,74.5
2018-11-25T02:47:28.856Z,74.3
2018-11-25T02:52:27.912Z,74.3
2018-11-25T02:57:28.768Z,74.3
2018-11-25T03:02:27.869Z,74.4
2018-11-25T03:07:28.417Z,74.6
2018-11-25T03:12:27.999Z,74.3
2018-11-25T03:17:29.508Z,74.1
2018-11-25T03:22:28.261Z,73.6
2018-11-25T03:27:29.177Z,73.7
2018-11-25T03:32:28.558Z,73.8
2018-11-25T03:37:28.588Z,73.8
2018-11-25T03:42:27.584Z,73.7
2018-11-25T03:47:28.247Z,73.5
2018-11-25T03:52:28.503Z,73.2
2018-11-25T03:57:28.056Z,73.0
2018-11-25T04:02:27.747Z,73.1
2018-11-25T04:07:28.480Z,72.8
2018-11-25T04:12:28.109Z,72.8
2018-11-25T04:17:28.913Z,72.8
2018-11-25T04:22:28.119Z,72.7
2018-11-25T04:27:29.734Z,72.5
2018-11-25T04:32:28.642Z,72.9
2018-11-25T04:37:28.401Z,72.8
2018-11-25T04:42:27.860Z,72.6
2018-11-25T04:47:28.059Z,72.5
2018-11-25T04:52:28.412Z,72.4
2018-11-25T04:57:28.332Z,72.4
2018-11-25T05:02:28.436Z,72.4
2018-11-25T05:07:28.932Z,72.2
2018-11-25T05:12:29.222Z,72.2
2018-11-25T05:17:28.393Z,72.1
2018-11-25T05:22:28.080Z,72.2
2018-11-25T05:27:29.692Z,72.6
2018-11-25T05:32:28.670Z,72.7
2018-11-25T05:37:28.572Z,72.2
2018-11-25T05:42:29.813Z,71.9
2018-11-25T05:47:32.149Z,72.4
2018-11-25T05:52:28.486Z,72.5
2018-11-25T05:57:27.904Z,71.8
2018-11-25T06:02:28.125Z,71.8
2018-11-25T06:07:28.982Z,71.8
2018-11-25T06:12:28.983Z,72.0
2018-11-25T06:17:29.197Z,71.8
2018-11-25T06:22:28.341Z,71.8
2018-11-25T06:27:29.047Z,71.7
2018-11-25T06:32:27.969Z,71.6
2018-11-25T06:37:28.346Z,71.7
2018-11-25T06:42:29.223Z,71.6
2018-11-25T06:47:29.633Z,71.5
2018-11-25T06:52:27.915Z,71.4
2018-11-25T06:57:28.338Z,71.5
2018-11-25T07:02:28.886Z,71.6
2018-11-25T07:07:30.547Z,71.4
2018-11-25T07:12:31.103Z,71.7
2018-11-25T07:17:29.105Z,71.6
2018-11-25T07:22:28.186Z,71.4
2018-11-25T07:27:28.456Z,71.4
2018-11-25T07:32:28.529Z,71.4
2018-11-25T07:37:29.022Z,71.4
2018-11-25T07:42:29.263Z,71.1
2018-11-25T07:47:28.924Z,71.1
2018-11-25T07:52:28.611Z,71.2
2018-11-25T07:57:28.889Z,70.9
2018-11-25T08:02:28.917Z,70.8
2018-11-25T08:07:28.614Z,70.6
2018-11-25T08:12:28.157Z,70.7
2018-11-25T08:17:29.780Z,70.4
2018-11-25T08:22:28.533Z,70.4
2018-11-25T08:27:28.369Z,70.3
2018-11-25T08:32:29.718Z,70.3
2018-11-25T08:37:29.541Z,70.6
2018-11-25T08:42:28.757Z,70.2
2018-11-25T08:47:28.824Z,70.2
2018-11-25T08:52:28.712Z,70.0
2018-11-25T08:57:28.723Z,69.8
2018-11-25T09:02:29.275Z,69.9
2018-11-25T09:07:29.343Z,69.8
2018-11-25T09:12:28.630Z,69.8
2018-11-25T09:17:29.416Z,69.9
2018-11-25T09:22:28.558Z,70.0
2018-11-25T09:27:28.682Z,70.4
2018-11-25T09:32:29.008Z,70.6
2018-11-25T09:37:28.958Z,71.2
2018-11-25T09:42:29.609Z,71.3
2018-11-25T09:47:29.187Z,71.5
2018-11-25T09:52:29.436Z,71.6
2018-11-25T09:57:29.488Z,71.6
2018-11-25T10:02:28.264Z,71.8
2018-11-25T10:07:29.429Z,72.1
2018-11-25T10:12:28.359Z,71.9
2018-11-25T10:17:28.426Z,72.2
2018-11-25T10:22:29.307Z,72.1
2018-11-25T10:27:29.048Z,72.0
2018-11-25T10:32:28.338Z,72.1
2018-11-25T10:37:29.095Z,72.1
2018-11-25T10:42:28.221Z,72.5
2018-11-25T10:47:29.405Z,73.2
2018-11-25T10:52:28.804Z,73.2
2018-11-25T10:57:29.547Z,73.5
2018-11-25T11:02:29.794Z,74.0
2018-11-25T11:07:28.858Z,74.4
2018-11-25T11:12:28.422Z,74.9
2018-11-25T11:17:29.018Z,75.1
2018-11-25T11:22:29.009Z,75.5
2018-11-25T11:27:28.661Z,75.9
2018-11-25T11:32:29.118Z,76.4
2018-11-25T11:37:28.688Z,76.6
2018-11-25T11:42:29.252Z,76.8
2018-11-25T11:47:28.881Z,76.9
2018-11-25T11:52:29.773Z,77.4
2018-11-25T11:57:28.056Z,77.8
2018-11-25T12:02:32.073Z,78.1
2018-11-25T12:07:29.001Z,78.2
2018-11-25T12:12:29.353Z,78.2
2018-11-25T12:17:29.095Z,78.4
2018-11-25T12:22:29.179Z,78.5
2018-11-25T12:27:28.595Z,78.7
2018-11-25T12:32:28.273Z,78.6
2018-11-25T12:37:35.728Z,78.6
2018-11-25T12:42:28.220Z,79.1
2018-11-25T12:47:29.416Z,79.2
2018-11-25T12:52:28.699Z,79.5
2018-11-25T12:57:28.433Z,79.8
2018-11-25T13:02:29.724Z,80.4
2018-11-25T13:07:28.777Z,80.4
2018-11-25T13:12:28.715Z,80.4
2018-11-25T13:17:29.532Z,80.4
2018-11-25T13:22:28.726Z,80.8
2018-11-25T13:27:29.105Z,80.7
2018-11-25T13:32:28.248Z,80.6
2018-11-25T13:37:28.735Z,80.1
2018-11-25T13:42:29.608Z,79.6
2018-11-25T13:47:28.682Z,79.6
2018-11-25T13:52:29.434Z,78.8
2018-11-25T13:57:29.097Z,78.0
2018-11-25T14:02:28.224Z,77.1
2018-11-25T14:07:29.378Z,76.2
2018-11-25T14:12:28.265Z,74.9
2018-11-25T14:17:29.528Z,74.1
2018-11-25T14:22:28.360Z,73.4
2018-11-25T14:27:29.374Z,73.1
2018-11-25T14:32:29.166Z,72.2
2018-11-25T14:37:28.542Z,71.9
2018-11-25T14:42:28.718Z,71.2
2018-11-25T14:47:29.467Z,71.2
2018-11-25T14:52:28.371Z,72.9
2018-11-25T14:57:29.131Z,74.8
2018-11-25T15:02:29.061Z,77.7
2018-11-25T15:07:29.530Z,78.8
2018-11-25T15:12:28.193Z,79.8
2018-11-25T15:17:28.777Z,80.6
2018-11-25T15:22:28.941Z,81.1
2018-11-25T15:27:28.316Z,81.1
2018-11-25T15:32:29.009Z,80.9
2018-11-25T15:37:29.359Z,80.8
2018-11-25T15:42:28.862Z,80.8
2018-11-25T15:47:29.036Z,80.8
2018-11-25T15:52:28.597Z,80.4
2018-11-25T15:57:28.239Z,79.9
2018-11-25T16:02:29.407Z,79.9
2018-11-25T16:07:29.254Z,79.5
2018-11-25T16:12:28.435Z,79.1
2018-11-25T16:17:28.436Z,78.9
2018-11-25T16:22:28.920Z,79.0
2018-11-25T16:27:29.111Z,78.9
2018-11-25T16:32:28.528Z,79.0
2018-11-25T16:37:28.390Z,78.8
2018-11-25T16:42:27.735Z,78.6
2018-11-25T16:47:28.734Z,78.5
2018-11-25T16:52:27.212Z,78.6
2018-11-25T16:57:27.955Z,78.3
2018-11-25T17:02:29.087Z,78.2
2018-11-25T17:07:29.249Z,78.0
2018-11-25T17:12:27.985Z,77.8
2018-11-25T17:17:28.882Z,77.8
2018-11-25T17:22:28.079Z,77.5
2018-11-25T17:27:28.145Z,77.6
2018-11-25T17:32:27.932Z,77.3
2018-11-25T17:37:28.698Z,77.0
2018-11-25T17:42:28.027Z,76.8
2018-11-25T17:47:28.191Z,76.6
2018-11-25T17:52:28.689Z,76.6
2018-11-25T17:57:27.478Z,76.6
2018-11-25T18:02:28.045Z,76.3
2018-11-25T18:07:28.243Z,76.2
2018-11-25T18:12:28.664Z,76.1
2018-11-25T18:17:28.716Z,75.9
2018-11-25T18:22:28.316Z,75.8
2018-11-25T18:27:28.633Z,75.8
2018-11-25T18:32:28.467Z,75.8
2018-11-25T18:37:28.904Z,75.8
2018-11-25T18:42:27.975Z,75.9
2018-11-25T18:47:28.204Z,75.3
2018-11-25T18:52:29.003Z,75.3
2018-11-25T18:57:27.815Z,75.4
2018-11-25T19:02:28.400Z,75.2
2018-11-25T19:07:28.415Z,75.1
2018-11-25T19:12:29.485Z,75.0
2018-11-25T19:17:29.814Z,74.8
2018-11-25T19:22:28.811Z,74.8
2018-11-25T19:27:28.919Z,74.9
2018-11-25T19:32:28.567Z,74.9
2018-11-25T19:37:27.976Z,74.9
2018-11-25T19:42:28.965Z,74.8
2018-11-25T19:47:28.609Z,74.8
2018-11-25T19:52:28.313Z,74.8
2018-11-25T19:57:28.930Z,74.8
2018-11-25T20:02:29.670Z,74.8
2018-11-25T20:07:29.170Z,74.8
2018-11-25T20:12:28.910Z,74.8
2018-11-25T20:17:29.490Z,75.1
2018-11-25T20:22:28.674Z,75.0
2018-11-25T20:27:29.754Z,75.0
2018-11-25T20:32:28.628Z,74.9
2018-11-25T20:37:29.024Z,75.0
2018-11-25T20:42:28.419Z,75.2
2018-11-25T20:47:28.729Z,75.1
2018-11-25T20:52:28.562Z,75.1
2018-11-25T20:57:28.274Z,75.1
2018-11-25T21:02:29.845Z,75.2
2018-11-25T21:07:28.471Z,75.3
2018-11-25T21:12:28.086Z,75.2
2018-11-25T21:17:28.503Z,75.2
2018-11-25T21:22:28.001Z,75.3
2018-11-25T21:27:28.534Z,75.4
2018-11-25T21:32:28.820Z,75.3
2018-11-25T21:37:28.970Z,75.3
2018-11-25T21:42:29.920Z,75.4
2018-11-25T21:47:28.292Z,75.3
2018-11-25T21:52:28.181Z,75.3
2018-11-25T21:57:27.495Z,75.3
2018-11-25T22:02:28.315Z,75.2
2018-11-25T22:07:29.187Z,75.3
2018-11-25T22:12:29.061Z,75.2
2018-11-25T22:17:28.256Z,75.5
2018-11-25T22:22:28.601Z,75.5
2018-11-25T22:27:28.270Z,75.4
2018-11-25T22:32:29.381Z,75.4
2018-11-25T22:37:27.999Z,75.5
2018-11-25T22:42:28.143Z,75.6
2018-11-25T22:47:29.213Z,75.3
2018-11-25T22:52:28.540Z,75.3
2018-11-25T22:57:27.730Z,75.4
2018-11-25T23:02:28.451Z,75.4
2018-11-25T23:07:28.319Z,75.3
2018-11-25T23:12:27.640Z,75.4
2018-11-25T23:22:45.745Z,74.8
2018-11-25T23:27:45.021Z,75.2
2018-11-25T23:32:44.460Z,75.5
2018-11-25T23:37:45.284Z,75.6
2018-11-25T23:42:44.928Z,75.5
2018-11-25T23:47:44.619Z,75.5
2018-11-25T23:52:43.690Z,75.4
2018-11-25T23:57:44.352Z,75.4
